DTTD

Remada Air Base Airport

Remada, Tunisia
METAR DTTD 170500Z AUTO 09004KT 040V140 NCD 11/09 Q1019
Observed Flight Rules
Dec-17 @ 05:00 UTC (an hour ago)
Wind Clouds
90° at 4 knots
  • Clear skies
Temperatures Readings
Current 11°C / 52°F
Dewpoint 9°C / 48°F
Humidity 88%
Altimeter 30.09" Hg
Pressure 1019 hPa
Elevation 301
METAR DTTD 170500Z AUTO 09004KT 040V140 NCD 11/09 Q1019
Observed Flight Rules
Dec-17 @ 05:00 UTC
(an hour ago)
Wind
90° at 4 knots
Clouds
  • Clear skies
Temperature Dewpoint
11°C / 52°F 9°C / 48°F
Humidity Altimeter Pressure
88% 30.09" Hg 1019 hPa